• Join FlightAware (Why Join?)
  • Login
  • US Flag 
02:11AM EDT


 

Airport Tracker/Info


-or-


 

Live Flight TrackerFlight Track Log ✈ ASQ4233 ✈ 29-Apr-2013 ✈ KEWR - KBTV

Flight Track Log - Related Links

Times and Time Zones

All times are in EDT time to prevent confusion due to time zone crossing. See the ASQ4233 flight status page for this flight to view local times or setup timezone preferences in your user account.

Time Position Orientation Groundspeed Altitude Reporting Facility
EDT Latitude Longitude Course Direction KTS MPH feet Rate Location/Type
08:18AM 40.6500 -74.1833 40° Northeast 166 191 1,600  Level New York TRACON
08:19AM 40.6500 -74.2500 270° West 256 295 3,300 1,980 Climbing New York TRACON
08:20AM 40.7167 -74.2167 21° North 273 314 5,600 2,280 Climbing New York TRACON
08:21AM 40.9721 -73.8446 37° Northeast  Level FlightAware Approximate
08:21AM 40.7500 -74.1333 62° Northeast 287 330 7,900  Level New York TRACON
08:22AM 41.0482 -73.7626 40° Northeast  Level FlightAware Approximate
08:22AM 40.7833 -74.0333 66° East 289 333 10,000  Level New York TRACON
08:23AM 41.1230 -73.6784 40° Northeast  Level FlightAware Approximate
08:23AM 40.8167 -73.9167 69° East 342 394 10,000  Level New York TRACON
08:24AM 40.8667 -73.8167 57° Northeast 353 406 10,000 1,020 Level New York TRACON
08:26AM 41.0369 -73.6675 33° Northeast 368 423 13,400 1,560 Climbing Boston Center
08:27AM 41.1336 -73.5919 30° Northeast 363 418 15,000 1,500 Climbing Boston Center
08:28AM 41.2114 -73.5300 31° Northeast 363 418 16,500 1,380 Climbing Boston Center
08:29AM 41.3058 -73.4542 31° Northeast 368 423 17,800 1,260 Climbing Boston Center
08:30AM 41.3897 -73.3892 30° Northeast 368 423 19,100 1,380 Climbing Boston Center
08:31AM 41.4781 -73.3156 32° Northeast 374 430 20,600 1,560 Climbing Boston Center
08:32AM 41.5494 -73.2250 43° Northeast 366 421 22,300 1,560 Climbing Boston Center
08:33AM 41.6456 -73.1761 21° North 361 415 23,800 1,260 Climbing Boston Center
08:34AM 41.7497 -73.1858 356° North 348 400 24,900 600 Climbing Boston Center
08:35AM 41.8581 -73.2011 354° North 360 414 25,000  Climbing Boston Center
08:36AM 41.9725 -73.2136 355° North 396 456 25,000  Level Boston Center
08:37AM 42.0933 -73.2292 355° North 414 476 25,000  Level Boston Center
08:38AM 42.2244 -73.2475 354° North 428 493 25,000  Level Boston Center
08:39AM 42.3244 -73.2600 355° North 433 498 25,000  Level Boston Center
08:40AM 42.4619 -73.2647 359° North 439 505 25,000  Level Boston Center
08:41AM 42.5869 -73.2833 354° North 444 511 25,000  Level Boston Center
08:42AM 42.7222 -73.3106 352° North 444 511 25,000  Level Boston Center
08:43AM 42.8472 -73.3292 354° North 444 511 25,000  Level Boston Center
08:44AM 42.9719 -73.3425 356° North 444 511 25,000 -420 Level Boston Center
08:45AM 43.0950 -73.3358 North 444 511 24,200 -540 Descending Boston Center
08:46AM 43.2203 -73.3206 North 439 505 24,000 -120 Descending Boston Center
08:47AM 43.3433 -73.3050 North 444 511 24,000 -60 Level Boston Center
08:48AM 43.4497 -73.2922 North 437 503 23,900 -1,080 Descending Boston Center
08:49AM 43.5706 -73.2769 North 432 497 21,900 -2,100 Descending Boston Center
08:50AM 43.7019 -73.2642 North 432 497 19,700 -2,040 Descending Boston Center
08:51AM 43.8189 -73.2514 North 420 483 17,900 -1,920 Descending Boston Center
08:52AM 43.9231 -73.2414 North 396 456 15,900 -2,040 Descending Boston Center
08:53AM 44.0169 -73.2283 North 379 436 13,900 -1,920 Descending Boston Center
08:54AM 44.1192 -73.2181 North 368 423 12,100 -1,800 Descending Boston Center
08:55AM 44.2106 -73.2367 352° North 344 396 10,400 -1,800 Descending Boston Center
08:56AM 44.2875 -73.2667 344° North 302 348 8,500 -1,980 Descending Boston Center
08:57AM 44.3603 -73.2936 345° North 269 310 6,500 -2,100 Descending Boston Center
08:58AM 44.4350 -73.3181 347° North 264 304 4,400 -2,100 Descending Boston Center
08:59AM 44.4953 -73.3394 346° North 240 276 2,300 -1,260 Descending Boston Center
09:00AM 44.5292 -73.2903 46° Northeast 171 197 1,900 -420 Descending Boston Center